Time;durP1;ratioP1;P1;durP2;ratioP2;P2;SDS_P1;SDS_P2;PMS_P1;PMS_P2;Temp;Humidity;BMP_temperature;BMP_pressure;BME280_temperature;BME280_humidity;BME280_pressure;Samples;Min_cycle;Max_cycle;Signal;HPM_P1;HPM_P2
2021/12/08 00:01:11;;;;;;;11.35;7.80;;;2.50;99.90;;;;;;5073044;28;20281;-67
2021/12/08 00:03:38;;;;;;;15.65;7.43;;;2.60;99.90;;;;;;5073154;28;20234;-67
2021/12/08 00:06:05;;;;;;;8.05;7.10;;;2.60;99.90;;;;;;5073014;28;20203;-67
2021/12/08 00:08:33;;;;;;;14.38;7.80;;;2.50;99.90;;;;;;5073093;28;20254;-67
2021/12/08 00:13:32;;;;;;;7.55;6.72;;;2.70;99.90;;;;;;5073146;28;20551;-67
2021/12/08 00:16:03;;;;;;;7.50;6.20;;;2.70;99.90;;;;;;5072981;28;20211;-67
2021/12/08 00:18:33;;;;;;;8.65;6.45;;;2.80;99.90;;;;;;5072663;28;20200;-67
2021/12/08 00:21:03;;;;;;;8.25;7.43;;;2.80;99.90;;;;;;5072754;28;20238;-67
2021/12/08 00:23:30;;;;;;;10.77;8.10;;;2.90;99.90;;;;;;5073000;28;20192;-68
2021/12/08 00:25:57;;;;;;;9.57;6.57;;;2.90;99.90;;;;;;5072779;28;20200;-67
2021/12/08 00:28:25;;;;;;;8.13;6.20;;;2.90;99.90;;;;;;5072999;28;20200;-67
2021/12/08 00:30:56;;;;;;;11.27;7.60;;;2.80;99.90;;;;;;5073076;28;20282;-67
2021/12/08 00:33:22;;;;;;;16.85;7.00;;;2.70;99.90;;;;;;5074839;28;20588;-67
2021/12/08 00:35:51;;;;;;;9.32;7.60;;;2.80;99.90;;;;;;5076475;28;20208;-67
2021/12/08 00:38:18;;;;;;;8.07;7.25;;;2.90;99.90;;;;;;5075572;28;20212;-67
2021/12/08 00:40:46;;;;;;;10.23;6.95;;;3.00;99.90;;;;;;5076791;28;20227;-67
2021/12/08 00:43:15;;;;;;;13.30;7.40;;;2.90;99.90;;;;;;5076829;28;20192;-67
2021/12/08 00:45:41;;;;;;;12.90;8.07;;;3.00;99.90;;;;;;5076663;28;20692;-67
2021/12/08 00:48:08;;;;;;;8.07;6.55;;;3.10;99.90;;;;;;5075372;28;20212;-67
2021/12/08 00:50:36;;;;;;;11.75;8.77;;;3.00;99.90;;;;;;5075835;28;20266;-67
2021/12/08 00:53:03;;;;;;;12.38;7.88;;;2.90;99.90;;;;;;5075762;28;20252;-67
2021/12/08 00:55:31;;;;;;;10.95;8.02;;;3.00;99.90;;;;;;5075031;28;20208;-67
2021/12/08 00:57:58;;;;;;;11.38;7.75;;;3.00;99.90;;;;;;5075134;28;20421;-66
2021/12/08 01:00:30;;;;;;;11.88;7.78;;;3.00;99.90;;;;;;5074900;28;20204;-67
2021/12/08 01:02:58;;;;;;;9.10;6.50;;;3.00;99.90;;;;;;5074933;28;20241;-67
2021/12/08 01:05:30;;;;;;;8.27;6.70;;;3.00;99.90;;;;;;5075785;28;20204;-67
2021/12/08 01:07:57;;;;;;;7.82;6.72;;;3.00;99.90;;;;;;5076032;28;20184;-67
2021/12/08 01:10:27;;;;;;;15.93;7.90;;;2.90;99.90;;;;;;5076095;28;20301;-67
2021/12/08 01:12:54;;;;;;;10.73;7.25;;;2.90;99.90;;;;;;5076312;28;20193;-67
2021/12/08 01:15:24;;;;;;;14.88;7.70;;;2.90;99.90;;;;;;5075708;28;20204;-67
2021/12/08 01:17:50;;;;;;;10.38;7.10;;;2.90;99.90;;;;;;5075578;28;20204;-67
2021/12/08 01:20:17;;;;;;;17.48;7.05;;;2.90;99.90;;;;;;5075698;28;20656;-67
2021/12/08 01:22:45;;;;;;;10.60;6.80;;;2.90;99.90;;;;;;5075734;28;20235;-67
2021/12/08 01:25:12;;;;;;;7.63;6.82;;;2.90;99.90;;;;;;5075469;28;20200;-67
2021/12/08 01:27:39;;;;;;;11.60;7.20;;;2.80;99.90;;;;;;5075772;28;20204;-66
2021/12/08 01:30:07;;;;;;;10.80;7.18;;;2.90;99.90;;;;;;5075610;28;20199;-67
2021/12/08 01:32:34;;;;;;;9.57;6.15;;;2.90;99.90;;;;;;5075766;28;20200;-67
2021/12/08 01:35:01;;;;;;;11.25;6.72;;;2.90;99.90;;;;;;5075242;28;20211;-67
2021/12/08 01:37:28;;;;;;;7.38;6.68;;;2.80;99.90;;;;;;5075591;28;20215;-67
2021/12/08 01:39:54;;;;;;;11.43;6.93;;;2.80;99.90;;;;;;5074245;28;20207;-67
2021/12/08 01:42:29;;;;;;;9.88;6.43;;;2.80;99.90;;;;;;5074010;28;20226;-67
2021/12/08 01:47:41;;;;;;;13.30;6.60;;;2.90;99.90;;;;;;5075244;28;20184;-67
2021/12/08 01:50:09;;;;;;;11.48;6.80;;;2.90;99.90;;;;;;5073517;28;20711;-67
2021/12/08 01:52:36;;;;;;;12.90;7.45;;;2.90;99.90;;;;;;5075167;28;20603;-67
2021/12/08 01:55:04;;;;;;;13.27;6.32;;;2.90;99.90;;;;;;5075200;28;20219;-67
2021/12/08 01:57:31;;;;;;;8.98;6.80;;;2.90;99.90;;;;;;5074992;28;20203;-67
2021/12/08 01:59:57;;;;;;;9.50;6.53;;;2.90;99.90;;;;;;5074468;28;20659;-67
2021/12/08 02:02:24;;;;;;;9.52;6.88;;;2.80;99.90;;;;;;5073399;28;20216;-67
2021/12/08 02:04:50;;;;;;;14.00;7.25;;;2.90;99.90;;;;;;5074462;28;20241;-67
2021/12/08 02:07:16;;;;;;;13.70;7.97;;;2.90;99.90;;;;;;5074687;28;20563;-67
2021/12/08 02:09:43;;;;;;;11.13;8.10;;;2.90;99.90;;;;;;5074588;28;20207;-67
2021/12/08 02:12:10;;;;;;;16.23;7.90;;;2.90;99.90;;;;;;5073108;28;20215;-67
2021/12/08 02:14:36;;;;;;;13.05;7.43;;;2.90;99.90;;;;;;5074801;28;20207;-67
2021/12/08 02:17:03;;;;;;;15.55;7.80;;;2.90;99.90;;;;;;5073115;28;20256;-67
2021/12/08 02:19:29;;;;;;;11.48;8.25;;;3.00;99.90;;;;;;5074485;28;20212;-67
2021/12/08 02:21:56;;;;;;;9.15;7.35;;;3.00;99.90;;;;;;5074333;28;20254;-67
2021/12/08 02:24:23;;;;;;;7.85;7.05;;;2.90;99.90;;;;;;5074672;28;20204;-67
2021/12/08 02:26:51;;;;;;;9.52;6.30;;;3.00;99.90;;;;;;5074611;28;20196;-66
2021/12/08 02:29:29;;;;;;;13.20;7.10;;;3.00;99.90;;;;;;5074420;28;20652;-67
2021/12/08 02:32:03;;;;;;;12.98;7.15;;;3.00;99.90;;;;;;5074564;28;20613;-67
2021/12/08 02:46:43;;;;;;;9.75;7.53;;;3.00;99.90;;;;;;5074368;28;20640;-67
2021/12/08 02:48:37;;;;;;;14.93;8.15;;;3.00;99.90;;;;;;5073886;28;20194;-67
2021/12/08 02:51:04;;;;;;;9.90;7.38;;;2.90;99.90;;;;;;5073683;28;20297;-67
2021/12/08 02:53:32;;;;;;;12.07;8.48;;;3.00;99.90;;;;;;5073772;28;20224;-67
2021/12/08 02:55:59;;;;;;;8.77;7.43;;;3.00;99.90;;;;;;5073163;28;20204;-68
2021/12/08 02:58:25;;;;;;;8.07;7.10;;;3.10;99.90;;;;;;5073512;28;20631;-67
2021/12/08 03:00:57;;;;;;;12.15;7.50;;;3.10;99.90;;;;;;5072019;28;20200;-67
2021/12/08 03:03:24;;;;;;;12.35;9.25;;;3.10;99.90;;;;;;5073819;28;20188;-67
2021/12/08 03:05:51;;;;;;;10.48;8.95;;;3.10;99.90;;;;;;5073486;28;20195;-68
2021/12/08 03:08:17;;;;;;;12.32;7.78;;;3.10;99.90;;;;;;5072206;28;20195;-67
2021/12/08 03:10:47;;;;;;;9.95;7.70;;;3.10;99.90;;;;;;5073618;28;20237;-69
2021/12/08 03:13:14;;;;;;;8.43;7.63;;;3.10;99.90;;;;;;5073364;28;20196;-68
2021/12/08 03:15:41;;;;;;;9.77;7.38;;;3.10;99.90;;;;;;5073498;28;20196;-67
2021/12/08 03:18:08;;;;;;;9.82;7.30;;;3.10;99.90;;;;;;5073727;28;20196;-68
2021/12/08 03:20:43;;;;;;;10.70;6.97;;;3.00;99.90;;;;;;5073747;28;20196;-67
2021/12/08 03:23:14;;;;;;;9.07;7.00;;;3.00;99.90;;;;;;5073677;28;20587;-67
2021/12/08 03:25:43;;;;;;;10.13;9.07;;;3.00;99.90;;;;;;5072103;28;20612;-67
2021/12/08 03:28:22;;;;;;;15.27;8.93;;;3.00;99.90;;;;;;5073531;28;20258;-67
2021/12/08 03:31:00;;;;;;;16.15;9.93;;;3.00;99.90;;;;;;5073222;28;20188;-68
2021/12/08 03:33:27;;;;;;;21.83;10.60;;;3.00;99.90;;;;;;5073410;28;20195;-68
2021/12/08 03:35:53;;;;;;;21.05;9.55;;;3.00;99.90;;;;;;5073528;28;20236;-68
2021/12/08 03:38:21;;;;;;;12.18;7.60;;;3.00;99.90;;;;;;5073162;28;20216;-68
2021/12/08 03:40:49;;;;;;;21.63;9.90;;;3.00;99.90;;;;;;5073059;28;20215;-68
2021/12/08 03:43:15;;;;;;;13.45;9.48;;;3.00;99.90;;;;;;5072857;28;20196;-68
2021/12/08 03:45:47;;;;;;;12.85;8.52;;;2.90;99.90;;;;;;5072067;28;20573;-68
2021/12/08 03:48:38;;;;;;;9.80;7.75;;;3.00;99.90;;;;;;5073216;28;20258;-68
2021/12/08 03:51:04;;;;;;;8.88;6.43;;;3.10;99.90;;;;;;5072548;28;20640;-68
2021/12/08 03:53:31;;;;;;;7.85;6.32;;;3.10;99.90;;;;;;5072995;28;20608;-67
2021/12/08 03:55:57;;;;;;;10.07;7.30;;;3.10;99.90;;;;;;5072058;28;20196;-67
2021/12/08 03:58:25;;;;;;;11.35;7.57;;;3.10;99.90;;;;;;5073105;28;20196;-68
2021/12/08 04:00:53;;;;;;;7.65;6.75;;;3.10;99.90;;;;;;5073121;28;20668;-68
2021/12/08 04:03:20;;;;;;;8.82;7.25;;;3.00;99.90;;;;;;5072925;28;20248;-68
2021/12/08 04:06:00;;;;;;;12.32;7.18;;;3.10;99.90;;;;;;5072915;28;20218;-68
2021/12/08 04:08:40;;;;;;;10.80;8.32;;;3.10;99.90;;;;;;5075129;28;20245;-67
2021/12/08 04:11:09;;;;;;;10.18;7.15;;;3.10;99.90;;;;;;5076924;28;20608;-67
2021/12/08 04:13:45;;;;;;;9.27;6.93;;;3.10;99.90;;;;;;5076856;28;20257;-68
2021/12/08 04:16:14;;;;;;;8.00;7.20;;;3.10;99.90;;;;;;5075800;28;20191;-67
2021/12/08 04:18:41;;;;;;;11.95;7.35;;;3.10;99.90;;;;;;5077023;28;20195;-68
2021/12/08 04:21:08;;;;;;;11.25;8.80;;;3.10;99.90;;;;;;5076787;28;20682;-68
2021/12/08 04:23:38;;;;;;;13.57;8.43;;;3.10;99.90;;;;;;5076558;28;20667;-68
2021/12/08 04:26:13;;;;;;;10.27;8.30;;;3.10;99.90;;;;;;5077076;28;20655;-68
2021/12/08 04:28:40;;;;;;;11.05;8.55;;;3.20;99.90;;;;;;5077105;28;20184;-68
2021/12/08 04:31:25;;;;;;;13.63;7.40;;;3.20;99.90;;;;;;5076752;28;20269;-68
2021/12/08 04:33:57;;;;;;;9.40;8.00;;;3.10;99.90;;;;;;5076748;28;20185;-68
2021/12/08 04:36:26;;;;;;;9.02;7.15;;;3.10;99.90;;;;;;5076548;28;20203;-68
2021/12/08 04:38:57;;;;;;;10.90;7.20;;;3.10;99.90;;;;;;5076341;28;20773;-68
2021/12/08 04:41:33;;;;;;;8.68;7.10;;;3.10;99.90;;;;;;5074709;28;20699;-68
2021/12/08 04:44:30;;;;;;;11.10;8.35;;;3.00;99.90;;;;;;5076185;28;20188;-68
2021/12/08 04:52:21;;;;;;;14.00;10.95;;;3.10;99.90;;;;;;5076460;28;20549;-68
2021/12/08 05:08:49;;;;;;;13.93;10.82;;;3.30;99.90;;;;;;5067458;28;20196;-68
2021/12/08 05:11:23;;;;;;;13.27;10.30;;;3.30;99.90;;;;;;5075589;28;20667;-68
2021/12/08 05:13:55;;;;;;;12.93;9.82;;;3.30;99.90;;;;;;5075968;28;20195;-68
2021/12/08 05:16:24;;;;;;;14.52;9.60;;;3.30;99.90;;;;;;5075777;28;20672;-68
2021/12/08 05:18:52;;;;;;;17.05;11.80;;;3.30;99.90;;;;;;5075410;28;20200;-68
2021/12/08 05:21:49;;;;;;;13.75;10.88;;;3.30;99.90;;;;;;5075115;28;20204;-68
2021/12/08 05:24:32;;;;;;;13.70;9.93;;;3.40;99.90;;;;;;5073573;28;20596;-68
2021/12/08 05:27:21;;;;;;;12.93;10.75;;;3.30;99.90;;;;;;5075909;28;20184;-68
2021/12/08 05:29:53;;;;;;;13.10;9.15;;;3.30;99.90;;;;;;5075171;28;20200;-68
2021/12/08 05:32:20;;;;;;;15.15;11.68;;;3.30;99.90;;;;;;5075675;28;20196;-68
2021/12/08 05:34:47;;;;;;;13.05;10.77;;;3.30;99.90;;;;;;5075146;28;20590;-68
2021/12/08 05:37:16;;;;;;;15.95;12.25;;;3.30;99.90;;;;;;5075595;28;20203;-68
2021/12/08 05:39:43;;;;;;;19.90;11.07;;;3.30;99.90;;;;;;5075148;28;20207;-68
2021/12/08 05:42:14;;;;;;;19.73;11.25;;;3.30;99.90;;;;;;5075474;28;20261;-68
2021/12/08 05:44:41;;;;;;;19.33;11.25;;;3.30;99.90;;;;;;5075396;28;20184;-68
2021/12/08 05:47:17;;;;;;;18.52;12.82;;;3.30;99.90;;;;;;5075089;28;20211;-68
2021/12/08 05:49:45;;;;;;;16.67;11.95;;;3.30;99.90;;;;;;5075004;28;20694;-68
2021/12/08 05:52:11;;;;;;;15.88;12.98;;;3.20;99.90;;;;;;5073780;28;20211;-68
2021/12/08 05:54:42;;;;;;;14.57;11.20;;;3.20;99.90;;;;;;5074693;28;20567;-68
2021/12/08 05:57:20;;;;;;;17.77;12.38;;;3.30;99.90;;;;;;5074834;28;20636;-68
2021/12/08 05:59:48;;;;;;;20.85;13.20;;;3.20;99.90;;;;;;5075161;28;20199;-68
2021/12/08 06:02:22;;;;;;;18.75;13.00;;;3.30;99.90;;;;;;5074741;28;20228;-68
2021/12/08 06:04:49;;;;;;;17.83;13.77;;;3.30;99.90;;;;;;5074990;28;20203;-69
2021/12/08 06:07:21;;;;;;;17.77;12.80;;;3.30;99.90;;;;;;5073363;28;20203;-68
2021/12/08 06:09:49;;;;;;;16.10;13.57;;;3.30;99.90;;;;;;5073298;28;20633;-67
2021/12/08 06:12:16;;;;;;;17.70;11.77;;;3.30;99.90;;;;;;5074493;28;20253;-68
2021/12/08 06:14:43;;;;;;;19.05;13.20;;;3.30;99.90;;;;;;5074446;28;20659;-68
2021/12/08 06:17:18;;;;;;;16.55;12.82;;;3.30;99.90;;;;;;5074758;28;20207;-68
2021/12/08 06:19:47;;;;;;;30.33;18.25;;;3.30;99.90;;;;;;5074594;28;20195;-68
2021/12/08 06:22:15;;;;;;;37.05;19.05;;;3.40;99.90;;;;;;5074525;28;20227;-68
2021/12/08 06:24:42;;;;;;;51.80;27.67;;;3.40;99.90;;;;;;5074422;28;20200;-68
2021/12/08 06:27:09;;;;;;;34.40;20.67;;;3.40;99.90;;;;;;5074825;28;20616;-71
2021/12/08 06:29:37;;;;;;;35.22;20.58;;;3.50;99.90;;;;;;5074465;28;20203;-68
2021/12/08 06:32:06;;;;;;;22.67;16.08;;;3.40;99.90;;;;;;5073717;28;20325;-68
2021/12/08 06:34:33;;;;;;;24.05;18.33;;;3.30;99.90;;;;;;5074214;28;20278;-68
2021/12/08 06:37:10;;;;;;;41.63;22.15;;;3.30;99.90;;;;;;5073950;28;20210;-68
2021/12/08 06:39:47;;;;;;;52.53;26.23;;;3.30;99.90;;;;;;5074270;28;20554;-68
2021/12/08 06:42:20;;;;;;;19.58;16.10;;;3.30;99.90;;;;;;5073509;28;20214;-68
2021/12/08 06:44:49;;;;;;;24.33;14.82;;;3.30;99.90;;;;;;5074206;28;20184;-68
2021/12/08 06:47:20;;;;;;;22.63;15.90;;;3.30;99.90;;;;;;5074100;28;20203;-68
2021/12/08 06:49:49;;;;;;;26.38;17.58;;;3.30;99.90;;;;;;5073752;28;20228;-68
2021/12/08 06:52:21;;;;;;;20.88;14.23;;;3.30;99.90;;;;;;5072340;28;20576;-68
2021/12/08 06:54:56;;;;;;;19.83;15.35;;;3.20;99.90;;;;;;5073736;28;20219;-68
2021/12/08 06:57:30;;;;;;;25.85;14.85;;;3.20;99.90;;;;;;5073552;28;20184;-68
2021/12/08 07:00:01;;;;;;;23.10;16.10;;;3.20;99.90;;;;;;5073859;28;20204;-68
2021/12/08 07:03:20;;;;;;;21.33;16.00;;;3.20;99.90;;;;;;5073787;28;20208;-68
2021/12/08 07:05:42;;;;;;;26.70;20.85;;;3.20;99.90;;;;;;5072395;28;20253;-68
2021/12/08 07:08:10;;;;;;;25.15;15.73;;;3.20;99.90;;;;;;5073382;28;20199;-68
2021/12/08 07:10:43;;;;;;;21.63;17.10;;;3.20;99.90;;;;;;5072658;28;20256;-68
2021/12/08 07:13:16;;;;;;;28.65;18.65;;;3.20;99.90;;;;;;5073687;28;20185;-68
2021/12/08 07:15:51;;;;;;;20.15;16.10;;;3.20;99.90;;;;;;5073692;28;20211;-68
2021/12/08 07:18:22;;;;;;;28.02;20.73;;;3.20;99.90;;;;;;5073503;28;20191;-68
2021/12/08 07:20:54;;;;;;;24.48;16.35;;;3.20;99.90;;;;;;5073546;28;20666;-68
2021/12/08 07:23:52;;;;;;;21.48;16.63;;;3.20;99.90;;;;;;5073764;28;20216;-69
2021/12/08 07:26:24;;;;;;;27.40;19.80;;;3.30;99.90;;;;;;5069941;28;20203;-69
2021/12/08 07:28:52;;;;;;;27.17;19.30;;;3.20;99.90;;;;;;5073693;28;20181;-68
2021/12/08 07:31:27;;;;;;;27.65;16.60;;;3.20;99.90;;;;;;5073673;28;20204;-68
2021/12/08 07:33:56;;;;;;;21.08;16.05;;;3.20;99.90;;;;;;5073151;28;20183;-68
2021/12/08 07:36:23;;;;;;;24.58;17.20;;;3.30;99.90;;;;;;5073650;28;20663;-68
2021/12/08 07:38:53;;;;;;;21.58;16.60;;;3.30;99.90;;;;;;5073066;28;20196;-68
2021/12/08 07:41:30;;;;;;;24.27;17.50;;;3.30;99.90;;;;;;5073293;28;20204;-68
2021/12/08 07:43:59;;;;;;;21.20;15.75;;;3.20;99.90;;;;;;5073212;28;20200;-68
2021/12/08 07:46:33;;;;;;;24.77;17.70;;;3.30;99.90;;;;;;5073486;28;20205;-68
2021/12/08 07:49:10;;;;;;;24.98;17.00;;;3.30;99.90;;;;;;5072746;28;20562;-68
2021/12/08 07:51:47;;;;;;;22.83;16.00;;;3.30;99.90;;;;;;5073311;28;20187;-67
2021/12/08 07:54:15;;;;;;;21.63;15.55;;;3.30;99.90;;;;;;5073356;28;20216;-68
2021/12/08 07:56:45;;;;;;;20.83;16.05;;;3.30;99.90;;;;;;5073086;28;20200;-68
2021/12/08 07:59:15;;;;;;;19.27;15.55;;;3.20;99.90;;;;;;5072014;28;20200;-68
2021/12/08 08:01:45;;;;;;;19.27;15.40;;;3.20;99.90;;;;;;5071743;28;20706;-68
2021/12/08 08:04:16;;;;;;;23.75;15.63;;;3.20;99.90;;;;;;5071774;28;20211;-68
2021/12/08 08:06:46;;;;;;;21.98;15.82;;;3.20;99.90;;;;;;5071579;28;20206;-68
2021/12/08 08:09:18;;;;;;;29.77;19.08;;;3.30;99.90;;;;;;5072864;28;20539;-68
2021/12/08 08:11:54;;;;;;;31.42;18.40;;;3.30;99.90;;;;;;5072835;28;20183;-68
2021/12/08 08:14:21;;;;;;;23.83;15.98;;;3.30;99.90;;;;;;5073231;28;20203;-68
2021/12/08 08:16:55;;;;;;;30.63;21.23;;;3.30;99.90;;;;;;5073050;28;20210;-68
2021/12/08 08:19:27;;;;;;;21.48;16.67;;;3.40;99.90;;;;;;5073107;28;20793;-68
2021/12/08 08:21:58;;;;;;;22.67;17.55;;;3.40;99.90;;;;;;5073129;28;20222;-68
2021/12/08 08:24:25;;;;;;;39.05;23.90;;;3.50;99.90;;;;;;5071593;28;20200;-68
2021/12/08 08:26:54;;;;;;;34.03;19.85;;;3.50;99.90;;;;;;5072780;28;20192;-68
2021/12/08 08:29:22;;;;;;;23.45;16.63;;;3.60;99.90;;;;;;5072674;28;20570;-68
2021/12/08 08:31:59;;;;;;;21.90;16.40;;;3.70;99.90;;;;;;5072498;28;20204;-68
2021/12/08 08:34:34;;;;;;;21.48;15.82;;;3.80;99.90;;;;;;5072773;28;20285;-68
2021/12/08 08:37:02;;;;;;;22.85;15.95;;;3.80;99.90;;;;;;5071421;28;20199;-68
2021/12/08 08:39:32;;;;;;;22.73;15.38;;;3.90;99.90;;;;;;5072693;28;20234;-68
2021/12/08 08:42:08;;;;;;;19.58;15.15;;;3.90;99.90;;;;;;5073176;28;20218;-68
2021/12/08 08:44:46;;;;;;;20.63;15.48;;;3.90;99.90;;;;;;5072318;28;20212;-68
2021/12/08 08:47:22;;;;;;;23.88;17.17;;;3.90;99.90;;;;;;5072177;28;20195;-67
2021/12/08 08:49:48;;;;;;;23.80;16.23;;;3.90;99.90;;;;;;5072426;28;20220;-68
2021/12/08 08:52:30;;;;;;;20.83;17.30;;;4.00;99.90;;;;;;5072511;28;20227;-68
2021/12/08 08:55:04;;;;;;;19.85;15.80;;;4.00;99.90;;;;;;5075418;28;20223;-68
2021/12/08 08:57:36;;;;;;;19.63;16.02;;;4.10;99.90;;;;;;5075875;28;20202;-68
2021/12/08 09:00:15;;;;;;;24.08;16.45;;;4.20;99.90;;;;;;5075959;28;20246;-69
2021/12/08 09:02:42;;;;;;;17.40;14.18;;;4.20;99.90;;;;;;5076039;28;20204;-70
2021/12/08 09:05:14;;;;;;;23.63;17.67;;;4.20;99.90;;;;;;5076199;28;20260;-69
2021/12/08 09:07:44;;;;;;;21.23;15.00;;;4.20;99.90;;;;;;5076174;28;20200;-69
2021/12/08 09:10:20;;;;;;;21.65;16.00;;;4.20;99.90;;;;;;5076291;28;20663;-69
2021/12/08 09:13:01;;;;;;;23.60;16.17;;;4.20;99.90;;;;;;5076090;28;20199;-69
2021/12/08 09:15:40;;;;;;;20.83;17.00;;;4.10;99.90;;;;;;5075005;28;20211;-69
2021/12/08 09:18:30;;;;;;;21.85;17.20;;;4.20;99.90;;;;;;5075883;28;20627;-69
2021/12/08 09:21:12;;;;;;;19.77;15.40;;;4.20;99.90;;;;;;5075745;28;20567;-69
2021/12/08 09:23:51;;;;;;;23.15;17.65;;;4.10;99.90;;;;;;5075474;28;20204;-69
2021/12/08 09:26:21;;;;;;;21.08;16.35;;;4.20;99.90;;;;;;5075705;28;20180;-69
2021/12/08 09:28:53;;;;;;;18.58;15.50;;;4.20;99.90;;;;;;5076319;28;20196;-69
2021/12/08 09:31:32;;;;;;;23.35;17.65;;;4.20;99.90;;;;;;5076044;28;20184;-69
2021/12/08 09:34:21;;;;;;;24.08;18.08;;;4.10;99.90;;;;;;5075415;28;20268;-69
2021/12/08 09:37:02;;;;;;;22.35;17.00;;;4.20;99.90;;;;;;5075446;28;20196;-69
2021/12/08 09:39:53;;;;;;;24.00;17.50;;;4.20;99.90;;;;;;5075347;28;20191;-69
2021/12/08 09:42:46;;;;;;;29.00;17.95;;;4.30;99.90;;;;;;5076136;28;20200;-69
2021/12/08 09:45:22;;;;;;;28.20;16.77;;;4.30;99.90;;;;;;5075796;28;20204;-69
2021/12/08 09:47:48;;;;;;;24.10;18.10;;;4.30;99.90;;;;;;5075840;28;20184;-69
2021/12/08 09:50:15;;;;;;;20.90;17.33;;;4.40;99.90;;;;;;5075364;28;20227;-69
2021/12/08 09:52:45;;;;;;;25.42;19.42;;;4.40;99.90;;;;;;5075643;28;20210;-69
2021/12/08 09:55:14;;;;;;;24.88;18.95;;;4.40;99.90;;;;;;5075343;28;20204;-69
2021/12/08 09:57:40;;;;;;;28.17;19.15;;;4.50;99.90;;;;;;5075432;28;20253;-69
2021/12/08 10:00:10;;;;;;;25.02;18.02;;;4.40;99.90;;;;;;5074891;28;20211;-69
2021/12/08 10:02:37;;;;;;;23.92;18.25;;;4.50;99.90;;;;;;5075274;28;20220;-69
2021/12/08 10:05:10;;;;;;;27.67;20.13;;;4.50;99.90;;;;;;5074813;28;20199;-69
2021/12/08 10:07:37;;;;;;;25.33;17.88;;;4.50;99.90;;;;;;5074881;28;20195;-69
2021/12/08 10:10:09;;;;;;;26.50;18.80;;;4.60;99.90;;;;;;5073959;28;20200;-69
2021/12/08 10:12:37;;;;;;;23.75;18.45;;;4.60;99.90;;;;;;5075452;28;20189;-69
2021/12/08 10:15:08;;;;;;;27.50;19.10;;;4.60;99.90;;;;;;5074790;28;20208;-69
2021/12/08 10:17:34;;;;;;;23.98;18.20;;;4.60;99.90;;;;;;5074940;28;20196;-69
2021/12/08 10:20:20;;;;;;;25.85;18.73;;;4.70;99.90;;;;;;5057313;28;20254;-69
2021/12/08 10:23:11;;;;;;;22.65;17.05;;;4.80;99.90;;;;;;5075074;28;20211;-69
2021/12/08 10:26:03;;;;;;;24.10;18.42;;;4.80;99.90;;;;;;5074952;28;20192;-69
2021/12/08 10:28:36;;;;;;;24.10;18.70;;;4.90;99.90;;;;;;5070152;28;20196;-69
2021/12/08 10:31:14;;;;;;;27.55;19.65;;;4.90;99.90;;;;;;5074734;28;20200;-69
2021/12/08 10:34:03;;;;;;;26.40;18.40;;;4.90;99.90;;;;;;5074140;28;20203;-69
2021/12/08 10:39:25;;;;;;;27.67;18.13;;;5.10;99.90;;;;;;5073811;28;20199;-69
2021/12/08 10:42:14;;;;;;;25.80;18.20;;;5.20;99.90;;;;;;5074457;28;20192;-69
2021/12/08 10:47:44;;;;;;;25.88;17.45;;;5.40;99.90;;;;;;5073527;28;20199;-69
2021/12/08 10:56:08;;;;;;;35.70;25.48;;;5.40;99.90;;;;;;5074190;28;20199;-69
2021/12/08 10:58:39;;;;;;;30.20;22.13;;;5.50;99.90;;;;;;5073789;28;20580;-69
2021/12/08 11:01:16;;;;;;;26.52;19.27;;;5.50;99.90;;;;;;5073810;28;20180;-69
2021/12/08 11:03:44;;;;;;;27.55;20.70;;;5.50;99.90;;;;;;5073717;28;20599;-69
2021/12/08 11:06:16;;;;;;;25.48;19.35;;;5.50;99.90;;;;;;5072542;28;20620;-69
2021/12/08 11:08:46;;;;;;;25.40;18.33;;;5.60;99.90;;;;;;5073693;28;20199;-69
2021/12/08 11:11:22;;;;;;;25.63;17.75;;;5.50;99.90;;;;;;5072718;28;20257;-69
2021/12/08 11:13:54;;;;;;;26.38;18.00;;;5.50;99.90;;;;;;5073494;28;20365;-69
2021/12/08 11:16:27;;;;;;;22.63;17.27;;;5.50;99.90;;;;;;5073067;28;20212;-69
2021/12/08 11:19:19;;;;;;;23.33;20.00;;;5.50;99.90;;;;;;5073450;28;20192;-68
2021/12/08 11:21:53;;;;;;;30.92;18.70;;;5.50;99.90;;;;;;5072402;28;20188;-69
2021/12/08 11:24:34;;;;;;;24.25;19.13;;;5.40;99.90;;;;;;5073611;28;20215;-69
2021/12/08 11:27:03;;;;;;;27.05;19.33;;;5.50;99.90;;;;;;5073936;28;20788;-69
2021/12/08 11:29:33;;;;;;;26.88;19.58;;;5.60;99.90;;;;;;5073429;28;20598;-69
2021/12/08 11:32:03;;;;;;;27.23;19.60;;;5.60;99.90;;;;;;5073356;28;20602;-69
2021/12/08 11:34:34;;;;;;;25.33;18.45;;;5.60;99.90;;;;;;5073783;28;20253;-69
2021/12/08 11:37:04;;;;;;;25.63;18.13;;;5.60;99.90;;;;;;5073504;28;20180;-69
2021/12/08 11:39:34;;;;;;;29.67;19.20;;;5.60;99.90;;;;;;5073412;28;20200;-69
2021/12/08 11:42:06;;;;;;;32.45;21.13;;;5.60;99.90;;;;;;5073566;28;20222;-69
2021/12/08 11:44:37;;;;;;;27.95;21.75;;;5.60;99.90;;;;;;5073873;28;20216;-69
2021/12/08 11:47:07;;;;;;;30.88;23.65;;;5.70;99.90;;;;;;5073547;28;20180;-69
2021/12/08 11:49:40;;;;;;;29.52;21.55;;;5.80;99.90;;;;;;5072930;28;20259;-69
2021/12/08 11:52:13;;;;;;;28.05;20.50;;;5.90;99.90;;;;;;5073367;28;20541;-69
2021/12/08 11:55:00;;;;;;;25.23;19.20;;;5.90;99.90;;;;;;5073381;28;20332;-69
2021/12/08 11:57:36;;;;;;;25.08;19.00;;;5.90;99.90;;;;;;5074144;28;20184;-69
2021/12/08 12:00:19;;;;;;;23.25;18.10;;;5.80;99.90;;;;;;5073779;28;20203;-69
2021/12/08 12:02:58;;;;;;;23.83;18.08;;;5.80;99.90;;;;;;5073169;28;20260;-70
2021/12/08 12:05:30;;;;;;;32.97;22.17;;;5.80;99.90;;;;;;5072731;28;20176;-69
2021/12/08 12:07:57;;;;;;;30.35;21.15;;;5.90;99.90;;;;;;5073542;28;20177;-69
2021/12/08 12:10:30;;;;;;;32.08;21.20;;;5.90;99.90;;;;;;5073122;28;20257;-69
2021/12/08 12:12:58;;;;;;;32.80;22.55;;;6.00;99.90;;;;;;5073056;28;20208;-70
2021/12/08 12:15:25;;;;;;;35.90;24.30;;;5.90;99.90;;;;;;5073078;28;20305;-69
2021/12/08 12:17:52;;;;;;;27.73;20.58;;;5.90;99.90;;;;;;5073248;28;20249;-70
2021/12/08 12:20:21;;;;;;;30.30;21.83;;;5.90;99.90;;;;;;5072871;28;20204;-70
2021/12/08 12:23:29;;;;;;;27.42;21.13;;;5.90;99.90;;;;;;5072940;28;20200;-70
2021/12/08 12:26:20;;;;;;;23.15;19.13;;;6.00;99.90;;;;;;5072626;28;20180;-70
2021/12/08 12:29:01;;;;;;;26.52;19.50;;;5.90;99.90;;;;;;5073942;28;20204;-70
2021/12/08 12:31:36;;;;;;;28.05;20.48;;;5.90;99.90;;;;;;5076550;28;20616;-70
2021/12/08 12:34:28;;;;;;;32.00;22.90;;;5.90;99.90;;;;;;5076547;28;20237;-70
2021/12/08 12:36:55;;;;;;;35.80;23.25;;;5.90;99.90;;;;;;5076276;28;20184;-70
2021/12/08 12:39:26;;;;;;;26.65;21.10;;;5.90;99.90;;;;;;5076055;28;20210;-70
2021/12/08 12:42:01;;;;;;;26.77;19.92;;;5.90;99.90;;;;;;5076624;28;20311;-70
2021/12/08 12:44:30;;;;;;;28.95;21.08;;;5.90;99.90;;;;;;5076275;28;20226;-70
2021/12/08 12:47:09;;;;;;;25.38;20.10;;;5.90;99.90;;;;;;5076574;28;20651;-70
2021/12/08 12:49:38;;;;;;;26.17;19.33;;;5.90;99.90;;;;;;5075716;28;20231;-70
2021/12/08 12:52:07;;;;;;;28.38;19.95;;;6.00;99.90;;;;;;5076275;28;20275;-70
2021/12/08 12:54:35;;;;;;;29.42;19.33;;;5.90;99.90;;;;;;5076116;28;20625;-70
2021/12/08 12:57:06;;;;;;;27.05;18.42;;;6.00;99.90;;;;;;5058026;28;20643;-70
2021/12/08 12:59:50;;;;;;;31.35;21.38;;;5.90;99.90;;;;;;5075034;28;20220;-68
2021/12/08 13:02:35;;;;;;;29.35;21.10;;;6.00;99.90;;;;;;5076156;28;20199;-68
2021/12/08 13:05:12;;;;;;;29.30;20.27;;;6.00;99.90;;;;;;5076586;28;20215;-68
2021/12/08 13:07:58;;;;;;;21.65;18.45;;;6.00;99.90;;;;;;5076592;28;20654;-68
2021/12/08 13:10:37;;;;;;;24.45;18.50;;;6.00;99.90;;;;;;5076226;28;20208;-68
2021/12/08 13:13:11;;;;;;;25.23;18.88;;;6.10;99.90;;;;;;5076251;28;20208;-68
2021/12/08 13:15:41;;;;;;;27.38;18.15;;;6.10;99.90;;;;;;5076203;28;20257;-68
2021/12/08 13:18:51;;;;;;;24.08;18.40;;;6.00;99.90;;;;;;5076263;28;20598;-68
2021/12/08 13:21:41;;;;;;;24.90;18.00;;;6.00;99.90;;;;;;5056055;28;20238;-68
2021/12/08 13:24:36;;;;;;;22.25;18.23;;;6.00;99.90;;;;;;5055733;28;20211;-68
2021/12/08 13:27:09;;;;;;;21.17;17.13;;;6.10;99.90;;;;;;5055939;28;20196;-68
2021/12/08 13:29:40;;;;;;;23.33;18.98;;;6.00;99.90;;;;;;5056398;28;20197;-68
2021/12/08 13:32:13;;;;;;;22.88;18.58;;;6.10;99.90;;;;;;5056864;28;20193;-68
2021/12/08 13:34:43;;;;;;;26.00;17.95;;;6.10;99.90;;;;;;5056144;28;20212;-68
2021/12/08 13:37:23;;;;;;;22.15;16.65;;;6.10;99.90;;;;;;5056840;28;20204;-68
2021/12/08 13:39:52;;;;;;;27.73;17.20;;;6.10;99.90;;;;;;5056152;28;20204;-67
2021/12/08 13:42:28;;;;;;;21.08;18.00;;;6.10;99.90;;;;;;5056079;28;20212;-67
2021/12/08 13:45:00;;;;;;;26.60;19.35;;;6.10;99.90;;;;;;5055959;28;20641;-67
2021/12/08 13:47:31;;;;;;;23.02;16.10;;;6.10;99.90;;;;;;5055649;28;20576;-66
2021/12/08 13:50:19;;;;;;;25.00;19.33;;;6.10;99.90;;;;;;5055314;28;20227;-66
2021/12/08 13:53:06;;;;;;;23.65;18.65;;;6.00;99.90;;;;;;5055327;28;20193;-67
2021/12/08 13:55:35;;;;;;;25.35;17.90;;;6.00;99.90;;;;;;5055778;28;20717;-67